Estación de Coihueco

Ultimos registro cada 15 minutos 75
Estación Fecha / Hora Temperatura Humedad Lluvia Velocidad Dirección Radiación Presion
75 Coihueco 02-05-2026 18:30 9,3 83,9 0 0 267 0,6 991,6
74 Coihueco 02-05-2026 18:15 11,4 74,7 0 0 267 0,6 991,4
73 Coihueco 02-05-2026 18:00 13,7 63,8 0 0 267 4,4 991,1
72 Coihueco 02-05-2026 17:45 14 65,1 0 0 267 14,4 990,8
71 Coihueco 02-05-2026 17:30 15,3 59,1 0 0 267 20,6 990,4
70 Coihueco 02-05-2026 17:15 17,1 54,8 0 0,5 271 111,9 990,4
69 Coihueco 02-05-2026 17:00 17,2 54,2 0 0,5 271 150,6 990,3
68 Coihueco 02-05-2026 16:45 18,1 50,9 0 0,5 288 103,1 990,4
67 Coihueco 02-05-2026 16:30 18,8 50 0 0,5 275 226,9 990,3
66 Coihueco 02-05-2026 16:15 18,8 49,2 0 0,5 265 273,1 990,3
65 Coihueco 02-05-2026 16:00 19,6 48,7 0 0 248 314,4 990,2
64 Coihueco 02-05-2026 15:45 18,9 49 0 0,5 263 340,6 990,2
63 Coihueco 02-05-2026 15:30 19,3 48,1 0 0,5 264 388,1 990,4
62 Coihueco 02-05-2026 15:15 18 48,1 0 1,5 244 418,1 990,5
61 Coihueco 02-05-2026 15:00 18,2 49,7 0 1 268 450,6 990,5
60 Coihueco 02-05-2026 14:45 18,1 52,9 0 1 268 481,9 990,4
59 Coihueco 02-05-2026 14:30 17,5 51,3 0 1 260 511,9 990,7
58 Coihueco 02-05-2026 14:15 17,8 49,6 0 1 251 530,6 990,7
57 Coihueco 02-05-2026 14:00 17,2 49,9 0 1 271 551,9 990,9
56 Coihueco 02-05-2026 13:45 16,7 51,9 0 0,5 295 568,1 991
55 Coihueco 02-05-2026 13:30 15,9 57,1 0 1 247 580,6 991,3
54 Coihueco 02-05-2026 13:15 15,7 54,6 0 0,5 257 586,9 991,5
53 Coihueco 02-05-2026 13:00 15 55,4 0 0,5 241 594,4 991,7
52 Coihueco 02-05-2026 12:45 14,1 59,8 0 0,5 263 595,6 991,9
51 Coihueco 02-05-2026 12:30 13,5 60,6 0 0,5 271 590,6 992,4
50 Coihueco 02-05-2026 12:15 12,6 59,2 0 0,5 274 588,1 992,4
49 Coihueco 02-05-2026 12:00 12,3 67,9 0 0,5 240 578,1 992,6
48 Coihueco 02-05-2026 11:45 11,5 66,4 0 0,5 244 566,9 992,9
47 Coihueco 02-05-2026 11:30 9,8 72,3 0 1 220 549,4 993,1
46 Coihueco 02-05-2026 11:15 9,2 77,8 0 0,5 253 528,1 993,3
45 Coihueco 02-05-2026 11:00 8,6 82 0 0,5 267 508,1 993,3
44 Coihueco 02-05-2026 10:45 7,3 84,2 0 1,5 270 483,1 993,5
43 Coihueco 02-05-2026 10:30 6,6 88,8 0 1 271 455,6 993,8
42 Coihueco 02-05-2026 10:15 5,7 92,9 0 0,5 314 420,6 993,8
41 Coihueco 02-05-2026 10:00 5,5 100 0 0 348 390,6 993,9
40 Coihueco 02-05-2026 09:45 4,1 100 0 0 334 355,6 994,2
39 Coihueco 02-05-2026 09:30 3,7 100 0 0 334 321,9 994,4
38 Coihueco 02-05-2026 09:15 2,2 100 0 0 334 294,4 994,6
37 Coihueco 02-05-2026 09:00 1,2 100 0,2 0 334 258,1 994,5
36 Coihueco 02-05-2026 08:45 0,5 100 0 0 334 203,1 994,3
35 Coihueco 02-05-2026 08:30 -0,5 100 0 0 320 156,9 994,3
34 Coihueco 02-05-2026 08:15 -0,8 100 0 0 278 78,1 994,4
33 Coihueco 02-05-2026 08:00 -1,7 100 0 0 278 33,1 994,5
32 Coihueco 02-05-2026 07:45 -2,2 100 0 0 278 11,9 994,5
31 Coihueco 02-05-2026 07:30 -1,8 100 0 0 278 3,1 994,4
30 Coihueco 02-05-2026 07:15 -1,2 100 0 0 278 0,6 994,3
29 Coihueco 02-05-2026 07:00 -2,3 100 0 0 278 0,6 994,3
28 Coihueco 02-05-2026 06:45 -2,1 100 0 0 278 0,6 994,2
27 Coihueco 02-05-2026 06:30 -1,8 100 0 0 278 0,6 994,3
26 Coihueco 02-05-2026 06:15 -1,8 100 0 0 278 0,6 994,3
25 Coihueco 02-05-2026 06:00 -2 99,9 0 0 278 0,6 994,5
24 Coihueco 02-05-2026 05:45 -1,5 100 0 0 278 0,6 994,5
23 Coihueco 02-05-2026 05:30 -1,6 100 0 0 278 0,6 994,8
22 Coihueco 02-05-2026 05:15 -1,3 100 0 0 278 0,6 994,7
21 Coihueco 02-05-2026 05:00 -0,8 100 0 0 278 0,6 994,9
20 Coihueco 02-05-2026 04:45 -0,8 100 0 0 278 0,6 995,1
19 Coihueco 02-05-2026 04:30 -1,1 100 0 0 278 0,6 995,1
18 Coihueco 02-05-2026 04:15 -0,7 100 0 0 278 0,6 995,2
17 Coihueco 02-05-2026 04:00 -0,7 100 0 0 278 0,6 995,4
16 Coihueco 02-05-2026 03:45 -0,4 100 0 0 278 0,6 995,7
15 Coihueco 02-05-2026 03:30 -0,5 100 0 0 278 0,6 995,8
14 Coihueco 02-05-2026 03:15 -0,5 100 0 0 278 0,6 996,1
13 Coihueco 02-05-2026 03:00 -0,7 100 0 0 278 0,6 996,1
12 Coihueco 02-05-2026 02:45 0 100 0 0 275 0,6 996,2
11 Coihueco 02-05-2026 02:30 1 100 0 0 241 0,6 996,2
10 Coihueco 02-05-2026 02:15 0,9 100 0 0 241 0,6 996,3
9 Coihueco 02-05-2026 02:00 0,1 100 0 0 241 0,6 996,3
8 Coihueco 02-05-2026 01:45 0,3 100 0 0 241 0,6 996,4
7 Coihueco 02-05-2026 01:30 0,6 100 0 0 241 0,6 996,8
6 Coihueco 02-05-2026 01:15 1,6 100 0 0 241 0,6 996,7
5 Coihueco 02-05-2026 01:00 0,4 100 0 0 241 0,6 996,6
4 Coihueco 02-05-2026 00:45 1,9 100 0 0 241 0,6 996,9
3 Coihueco 02-05-2026 00:30 2,1 100 0 0 241 0,6 997,2
2 Coihueco 02-05-2026 00:15 1,9 98,6 0 0 241 0,6 997,4
1 Coihueco 02-05-2026 00:00 4,6 100 0 0 241 0,6 997,6